Zhangye, China
Current Conditions -  °F | °C
As of 10:00 PM on Sunday 25 Jan 2015 (Local Time) from ZLLL Reporting Station
Clear Clear  
Wind Chill: 21°   Ceiling: Unl
Heat Index: 28°   Visibility: 4mi
Dew Point: 10°   Wind: 7mph
Humidity: 47%   Direction: 340°NNW
Pressure: 30.03"   Gusts: NA
Location:  38.93°N, 100.45°E
Report Text: ZLLL 251400Z 34003MPS 6000 NSC M02/M12 Q1017 NOSIG
Loading
Personal Weather Stations






























Interactive Weather Map New forecast layout! Learn more

10-Day Weather Forecast

Advertisements
Track Severe Weather on mobile